East Harling, United Kingdom
Current Conditions -  °F | °C
As of 10:24 AM on Thursday 18 Dec 2014 (Local Time) from EGUL Reporting Station
Broken Clouds Broken Clouds  
Wind Chill: 55°   Ceiling: 1800
Heat Index: 55°   Visibility: 6mi
Dew Point: 55°   Wind: 24mph
Humidity: 100%   Direction: 240°WSW
Pressure: 29.71"   Gusts: 32mph
Location:  52.44°N, 0.93°E
Report Text: EGUL 181024Z AUTO 24021G28KT 9999 BKN018 13/13 A2971 RMK AO2 BKN V SCT
Loading
Personal Weather Stations






























Interactive Weather Map New forecast layout! Learn more

10-Day Weather Forecast

Advertisements
Track Severe Weather on mobile